createdAt,value
2019-06-26T00:00:48.200Z,0.00
2019-06-26T00:01:48.133Z,0.00
2019-06-26T00:02:48.089Z,0.00
2019-06-26T00:03:48.055Z,0.00
2019-06-26T00:04:48.003Z,0.00
2019-06-26T00:05:47.994Z,0.00
2019-06-26T00:06:47.915Z,0.00
2019-06-26T00:07:47.872Z,0.00
2019-06-26T00:08:47.826Z,0.00
2019-06-26T00:09:47.812Z,0.00
2019-06-26T00:10:47.739Z,0.00
2019-06-26T00:11:47.699Z,0.00
2019-06-26T00:12:47.651Z,0.00
2019-06-26T00:13:47.638Z,0.00
2019-06-26T00:14:47.566Z,0.00
2019-06-26T00:15:47.526Z,0.00
2019-06-26T00:16:47.510Z,0.00
2019-06-26T00:17:47.444Z,0.00
2019-06-26T00:18:47.431Z,0.00
2019-06-26T00:19:47.348Z,0.00
2019-06-26T00:20:47.305Z,0.00
2019-06-26T00:21:47.263Z,0.00
2019-06-26T00:22:47.215Z,0.00
2019-06-26T00:23:47.205Z,0.00
2019-06-26T00:24:47.133Z,0.00
2019-06-26T00:25:47.084Z,0.00
2019-06-26T00:26:47.043Z,0.00
2019-06-26T00:27:47.024Z,0.00
2019-06-26T00:28:46.958Z,0.00
2019-06-26T00:29:46.913Z,0.00
2019-06-26T00:30:46.868Z,0.00
2019-06-26T00:31:46.858Z,0.00
2019-06-26T00:32:46.777Z,0.00
2019-06-26T00:33:46.736Z,0.00
2019-06-26T00:34:46.692Z,0.00
2019-06-26T00:35:46.653Z,0.00
2019-06-26T00:36:46.644Z,0.00
2019-06-26T00:37:46.565Z,0.00
2019-06-26T00:38:46.521Z,0.00
2019-06-26T00:39:46.478Z,0.00
2019-06-26T00:40:46.431Z,0.00
2019-06-26T00:41:46.420Z,0.00
2019-06-26T00:42:46.341Z,0.00
2019-06-26T00:43:46.299Z,0.00
2019-06-26T00:44:46.253Z,0.00
2019-06-26T00:45:46.246Z,0.00
2019-06-26T00:46:46.173Z,0.00
2019-06-26T00:47:46.124Z,0.00
2019-06-26T00:48:46.077Z,0.00
2019-06-26T00:49:46.045Z,0.00
2019-06-26T00:50:46.034Z,0.00
2019-06-26T00:51:45.947Z,0.00
2019-06-26T00:52:45.902Z,0.00
2019-06-26T00:53:45.858Z,0.00
2019-06-26T00:54:45.822Z,0.00
2019-06-26T00:55:45.806Z,0.00
2019-06-26T00:56:45.729Z,0.00
2019-06-26T00:57:45.685Z,0.00
2019-06-26T00:58:45.651Z,0.00
2019-06-26T00:59:45.597Z,0.00
2019-06-26T01:00:45.593Z,0.00
2019-06-26T01:01:45.510Z,0.00
2019-06-26T01:02:45.470Z,0.00
2019-06-26T01:03:45.427Z,0.00
2019-06-26T01:04:45.383Z,0.00
2019-06-26T01:05:45.376Z,0.00
2019-06-26T01:06:45.298Z,0.00
2019-06-26T01:07:45.248Z,0.00
2019-06-26T01:08:45.211Z,0.00
2019-06-26T01:09:45.160Z,0.00
2019-06-26T01:10:45.168Z,0.00
2019-06-26T01:11:45.081Z,0.00
2019-06-26T01:12:45.029Z,0.00
2019-06-26T01:13:57.270Z,0.00
2019-06-26T01:14:44.942Z,0.00
2019-06-26T01:15:44.940Z,0.00
2019-06-26T01:16:44.853Z,0.00
2019-06-26T01:17:44.813Z,0.00
2019-06-26T01:18:44.781Z,0.00
2019-06-26T01:19:44.726Z,0.00
2019-06-26T01:20:44.713Z,0.00
2019-06-26T01:21:44.631Z,0.00
2019-06-26T01:22:44.590Z,0.00
2019-06-26T01:23:44.545Z,0.00
2019-06-26T01:24:44.506Z,0.00
2019-06-26T01:25:44.485Z,0.00
2019-06-26T01:26:44.440Z,0.00
2019-06-26T01:27:44.371Z,0.00
2019-06-26T01:28:44.324Z,0.00
2019-06-26T01:29:44.279Z,0.00
2019-06-26T01:30:44.266Z,0.00
2019-06-26T01:31:44.222Z,0.00
2019-06-26T01:32:44.149Z,0.00
2019-06-26T01:33:44.135Z,0.00
2019-06-26T01:34:44.060Z,0.00
2019-06-26T01:35:44.017Z,0.00
2019-06-26T01:36:44.007Z,0.00
2019-06-26T01:37:43.924Z,0.00
2019-06-26T01:38:43.887Z,0.00
2019-06-26T01:39:43.871Z,0.00
2019-06-26T01:40:43.792Z,0.00
2019-06-26T01:41:43.750Z,0.00
2019-06-26T01:42:43.705Z,0.00
2019-06-26T01:43:43.660Z,0.00
2019-06-26T01:44:43.660Z,0.00
2019-06-26T01:45:43.572Z,0.00
2019-06-26T01:46:43.529Z,0.00
2019-06-26T01:47:43.485Z,0.00
2019-06-26T01:48:43.441Z,0.00
2019-06-26T01:49:43.431Z,0.00
2019-06-26T01:50:43.356Z,0.00
2019-06-26T01:51:43.310Z,0.00
2019-06-26T01:52:43.267Z,0.00
2019-06-26T01:53:43.254Z,0.00
2019-06-26T01:54:43.177Z,0.00
2019-06-26T01:55:43.131Z,0.00
2019-06-26T01:56:43.099Z,0.00
2019-06-26T01:57:43.088Z,0.00
2019-06-26T01:58:43.007Z,0.00
2019-06-26T01:59:42.961Z,0.00
2019-06-26T02:00:42.914Z,0.00
2019-06-26T02:01:42.923Z,0.00
2019-06-26T02:02:42.856Z,0.00
2019-06-26T02:03:42.790Z,0.00
2019-06-26T02:04:42.736Z,0.00
2019-06-26T02:05:42.692Z,0.00
2019-06-26T02:06:42.646Z,0.00
2019-06-26T02:07:42.650Z,0.00
2019-06-26T02:08:42.559Z,0.00
2019-06-26T02:09:42.515Z,0.00
2019-06-26T02:10:42.480Z,0.00
2019-06-26T02:11:42.425Z,0.00
2019-06-26T02:12:42.443Z,0.00
2019-06-26T02:13:42.352Z,0.00
2019-06-26T02:14:42.294Z,0.00
2019-06-26T02:15:42.252Z,0.00
2019-06-26T02:16:42.205Z,0.00
2019-06-26T02:17:42.225Z,0.00
2019-06-26T02:18:42.118Z,0.00
2019-06-26T02:19:42.076Z,0.00
2019-06-26T02:20:42.044Z,0.00
2019-06-26T02:21:41.985Z,0.00
2019-06-26T02:22:41.991Z,0.00
2019-06-26T02:23:41.900Z,0.00
2019-06-26T02:24:41.851Z,0.00
2019-06-26T02:25:41.810Z,0.00
2019-06-26T02:26:41.764Z,0.00
2019-06-26T02:27:41.761Z,0.00
2019-06-26T02:28:41.678Z,0.00
2019-06-26T02:29:41.631Z,0.00
2019-06-26T02:30:41.605Z,0.00
2019-06-26T02:31:41.543Z,0.00
2019-06-26T02:32:41.537Z,0.00
2019-06-26T02:33:41.454Z,0.00
2019-06-26T02:34:41.411Z,0.00
2019-06-26T02:35:41.408Z,0.00
2019-06-26T02:36:41.320Z,0.00
2019-06-26T02:37:41.286Z,0.00
2019-06-26T02:38:41.237Z,0.00
2019-06-26T02:39:41.188Z,0.00
2019-06-26T02:40:41.182Z,0.00
2019-06-26T02:41:41.101Z,0.00
2019-06-26T02:42:41.057Z,0.00
2019-06-26T02:43:41.053Z,0.00
2019-06-26T02:44:53.140Z,0.00
2019-06-26T02:45:40.925Z,0.00
2019-06-26T02:46:40.877Z,0.00
2019-06-26T02:47:40.835Z,0.00
2019-06-26T02:48:40.832Z,0.00
2019-06-26T02:49:40.744Z,0.00
2019-06-26T02:50:40.707Z,0.00
2019-06-26T02:51:40.655Z,0.00
2019-06-26T02:52:40.613Z,0.00
2019-06-26T02:53:40.605Z,0.00
2019-06-26T02:54:40.522Z,0.00
2019-06-26T02:55:40.480Z,0.00
2019-06-26T02:56:40.435Z,0.00
2019-06-26T02:57:40.388Z,0.00
2019-06-26T02:58:40.369Z,0.00
2019-06-26T02:59:40.303Z,0.00
2019-06-26T03:00:40.263Z,0.00
2019-06-26T03:01:40.216Z,0.00
2019-06-26T03:02:40.191Z,0.00
2019-06-26T03:03:40.125Z,0.00
2019-06-26T03:04:40.077Z,0.00
2019-06-26T03:05:40.033Z,0.00
2019-06-26T03:06:40.025Z,0.00
2019-06-26T03:07:39.945Z,0.00
2019-06-26T03:08:39.903Z,0.00
2019-06-26T03:09:39.860Z,0.00
2019-06-26T03:10:39.816Z,0.00
2019-06-26T03:11:39.802Z,0.00
2019-06-26T03:12:39.727Z,0.00
2019-06-26T03:13:39.681Z,0.00
2019-06-26T03:14:39.637Z,0.00
2019-06-26T03:15:39.646Z,0.00
2019-06-26T03:16:39.547Z,5.63
2019-06-26T03:17:54.085Z,5.63
2019-06-26T03:18:39.457Z,5.63
2019-06-26T03:19:39.417Z,5.63
2019-06-26T03:20:39.434Z,5.63
2019-06-26T03:21:39.323Z,5.63
2019-06-26T03:22:39.284Z,5.63
2019-06-26T03:23:39.235Z,5.63
2019-06-26T03:24:39.200Z,5.63
2019-06-26T03:25:39.170Z,5.63
2019-06-26T03:26:39.143Z,5.63
2019-06-26T03:27:39.063Z,5.63
2019-06-26T03:28:39.018Z,11.25
2019-06-26T03:29:38.976Z,11.25
2019-06-26T03:30:38.924Z,11.25
2019-06-26T03:31:38.932Z,11.25
2019-06-26T03:32:38.893Z,11.25
2019-06-26T03:33:38.789Z,11.25
2019-06-26T03:34:38.743Z,11.25
2019-06-26T03:35:40.863Z,11.25
2019-06-26T03:36:38.681Z,16.88
2019-06-26T03:37:38.628Z,16.88
2019-06-26T03:38:38.685Z,16.88
2019-06-26T03:39:38.596Z,16.88
2019-06-26T03:40:38.476Z,16.88
2019-06-26T03:41:38.473Z,16.88
2019-06-26T03:42:38.446Z,16.88
2019-06-26T03:43:38.341Z,22.50
2019-06-26T03:44:38.298Z,22.50
2019-06-26T03:45:38.259Z,22.50
2019-06-26T03:46:38.240Z,22.50
2019-06-26T03:47:38.202Z,22.50
2019-06-26T03:48:38.120Z,22.50
2019-06-26T03:49:38.075Z,22.50
2019-06-26T03:50:38.031Z,28.13
2019-06-26T03:51:38.018Z,28.13
2019-06-26T03:52:37.940Z,28.13
2019-06-26T03:53:37.896Z,28.13
2019-06-26T03:54:37.865Z,28.13
2019-06-26T03:55:37.806Z,28.13
2019-06-26T03:56:37.793Z,33.75
2019-06-26T03:57:37.716Z,33.75
2019-06-26T03:58:37.706Z,33.75
2019-06-26T03:59:37.627Z,33.75
2019-06-26T04:00:37.584Z,33.75
2019-06-26T04:01:37.572Z,33.75
2019-06-26T04:02:37.499Z,39.38
2019-06-26T04:03:37.537Z,39.38
2019-06-26T04:04:37.409Z,39.38
2019-06-26T04:05:37.371Z,39.38
2019-06-26T04:06:37.340Z,39.38
2019-06-26T04:07:37.272Z,45.00
2019-06-26T04:08:37.293Z,45.00
2019-06-26T04:09:37.180Z,45.00
2019-06-26T04:10:37.140Z,45.00
2019-06-26T04:11:37.095Z,45.00
2019-06-26T04:12:37.048Z,45.00
2019-06-26T04:13:37.036Z,50.63
2019-06-26T04:14:37.002Z,50.63
2019-06-26T04:15:42.168Z,50.63
2019-06-26T04:16:36.871Z,50.63
2019-06-26T04:17:36.830Z,50.63
2019-06-26T04:18:36.784Z,50.63
2019-06-26T04:19:36.777Z,50.63
2019-06-26T04:20:36.694Z,56.25
2019-06-26T04:21:36.647Z,56.25
2019-06-26T04:22:36.637Z,56.25
2019-06-26T04:23:36.562Z,56.25
2019-06-26T04:24:36.516Z,56.25
2019-06-26T04:25:38.244Z,56.25
2019-06-26T04:26:36.428Z,56.25
2019-06-26T04:27:36.419Z,61.88
2019-06-26T04:28:36.337Z,61.88
2019-06-26T04:29:36.299Z,61.88
2019-06-26T04:30:36.248Z,61.88
2019-06-26T04:31:36.206Z,61.88
2019-06-26T04:32:36.200Z,61.88
2019-06-26T04:33:36.117Z,61.88
2019-06-26T04:34:36.077Z,67.50
2019-06-26T04:35:36.029Z,67.50
2019-06-26T04:36:36.011Z,67.50
2019-06-26T04:37:35.939Z,67.50
2019-06-26T04:38:35.895Z,67.50
2019-06-26T04:39:35.875Z,67.50
2019-06-26T04:40:35.827Z,67.50
2019-06-26T04:41:35.761Z,73.13
2019-06-26T04:42:35.726Z,73.13
2019-06-26T04:43:35.707Z,73.13
2019-06-26T04:44:35.634Z,73.13
2019-06-26T04:45:35.585Z,73.13
2019-06-26T04:46:35.543Z,73.13
2019-06-26T04:47:35.496Z,73.13
2019-06-26T04:48:35.490Z,73.13
2019-06-26T04:49:35.440Z,73.13
2019-06-26T04:50:35.367Z,78.75
2019-06-26T04:51:35.321Z,78.75
2019-06-26T04:52:35.277Z,78.75
2019-06-26T04:53:35.260Z,78.75
2019-06-26T04:54:35.187Z,78.75
2019-06-26T04:55:35.148Z,78.75
2019-06-26T04:56:35.097Z,78.75
2019-06-26T04:57:35.080Z,78.75
2019-06-26T04:58:35.041Z,84.38
2019-06-26T04:59:35.007Z,84.38
2019-06-26T05:00:34.924Z,84.38
2019-06-26T05:01:34.913Z,84.38
2019-06-26T05:02:34.838Z,84.38
2019-06-26T05:03:34.807Z,84.38
2019-06-26T05:04:34.746Z,84.38
2019-06-26T05:05:39.655Z,90.00
2019-06-26T05:06:34.669Z,90.00
2019-06-26T05:07:34.617Z,90.00
2019-06-26T05:08:34.572Z,90.00
2019-06-26T05:09:34.564Z,90.00
2019-06-26T05:10:34.482Z,90.00
2019-06-26T05:11:34.443Z,95.63
2019-06-26T05:12:34.397Z,95.63
2019-06-26T05:13:34.397Z,95.63
2019-06-26T05:14:34.307Z,95.63
2019-06-26T05:15:34.283Z,95.63
2019-06-26T05:16:34.247Z,95.63
2019-06-26T05:17:34.178Z,101.25
2019-06-26T05:18:34.162Z,101.25
2019-06-26T05:19:34.091Z,101.25
2019-06-26T05:20:34.082Z,101.25
2019-06-26T05:21:34.051Z,101.25
2019-06-26T05:22:33.959Z,101.25
2019-06-26T05:23:33.915Z,101.25
2019-06-26T05:24:33.872Z,106.88
2019-06-26T05:25:33.827Z,106.88
2019-06-26T05:26:33.810Z,106.88
2019-06-26T05:27:33.745Z,106.88
2019-06-26T05:28:33.699Z,106.88
2019-06-26T05:29:33.656Z,106.88
2019-06-26T05:30:33.647Z,106.88
2019-06-26T05:31:33.569Z,112.50
2019-06-26T05:32:33.553Z,112.50
2019-06-26T05:33:33.487Z,112.50
2019-06-26T05:34:33.439Z,112.50
2019-06-26T05:35:35.240Z,112.50
2019-06-26T05:36:33.382Z,112.50
2019-06-26T05:37:33.306Z,118.13
2019-06-26T05:38:33.301Z,118.13
2019-06-26T05:39:33.228Z,118.13
2019-06-26T05:40:33.175Z,118.13
2019-06-26T05:41:33.144Z,118.13
2019-06-26T05:42:33.120Z,118.13
2019-06-26T05:43:33.049Z,123.75
2019-06-26T05:44:33.004Z,123.75
2019-06-26T05:45:32.961Z,123.75
2019-06-26T05:46:32.948Z,123.75
2019-06-26T05:47:32.874Z,123.75
2019-06-26T05:48:32.868Z,123.75
2019-06-26T05:49:32.788Z,123.75
2019-06-26T05:50:32.749Z,129.38
2019-06-26T05:51:32.733Z,129.38
2019-06-26T05:52:32.657Z,129.38
2019-06-26T05:53:32.647Z,129.38
2019-06-26T05:54:32.572Z,129.38
2019-06-26T05:55:32.529Z,129.38
2019-06-26T05:56:32.490Z,129.38
2019-06-26T05:57:32.443Z,129.38
2019-06-26T05:58:32.433Z,129.38
2019-06-26T05:59:32.361Z,129.38
2019-06-26T06:00:32.317Z,129.38
2019-06-26T06:01:32.271Z,129.38
2019-06-26T06:02:32.230Z,129.38
2019-06-26T06:03:32.215Z,129.38
2019-06-26T06:04:32.150Z,129.38
2019-06-26T06:05:32.105Z,129.38
2019-06-26T06:06:41.766Z,135.00
2019-06-26T06:07:32.017Z,135.00
2019-06-26T06:08:32.004Z,135.00
2019-06-26T06:09:31.930Z,135.00
2019-06-26T06:10:31.896Z,135.00
2019-06-26T06:11:31.845Z,135.00
2019-06-26T06:12:31.804Z,135.00
2019-06-26T06:13:31.794Z,140.63
2019-06-26T06:14:31.719Z,140.63
2019-06-26T06:15:31.683Z,140.63
2019-06-26T06:16:46.423Z,140.63
2019-06-26T06:17:31.617Z,140.63
2019-06-26T06:18:31.553Z,140.63
2019-06-26T06:19:31.525Z,146.25
2019-06-26T06:20:31.465Z,146.25
2019-06-26T06:21:31.425Z,146.25
2019-06-26T06:22:31.414Z,146.25
2019-06-26T06:23:31.349Z,146.25
2019-06-26T06:24:31.299Z,146.25
2019-06-26T06:25:31.311Z,151.88
2019-06-26T06:26:31.217Z,151.88
2019-06-26T06:27:31.174Z,151.88
2019-06-26T06:28:31.132Z,151.88
2019-06-26T06:29:31.091Z,151.88
2019-06-26T06:30:31.079Z,151.88
2019-06-26T06:31:31.035Z,151.88
2019-06-26T06:32:30.962Z,157.50
2019-06-26T06:33:30.924Z,157.50
2019-06-26T06:34:30.881Z,157.50
2019-06-26T06:35:30.869Z,157.50
2019-06-26T06:36:30.800Z,163.13
2019-06-26T06:37:30.784Z,157.50
2019-06-26T06:38:30.715Z,157.50
2019-06-26T06:39:30.671Z,157.50
2019-06-26T06:40:30.628Z,163.13
2019-06-26T06:41:30.621Z,163.13
2019-06-26T06:42:30.557Z,163.13
2019-06-26T06:43:30.505Z,163.13
2019-06-26T06:44:30.471Z,163.13
2019-06-26T06:45:30.421Z,163.13
2019-06-26T06:46:30.420Z,163.13
2019-06-26T06:47:30.339Z,163.13
2019-06-26T06:48:30.295Z,168.75
2019-06-26T06:49:30.285Z,168.75
2019-06-26T06:50:30.216Z,174.38
2019-06-26T06:51:30.195Z,174.38
2019-06-26T06:52:30.128Z,174.38
2019-06-26T06:53:30.123Z,168.75
2019-06-26T06:54:30.078Z,168.75
2019-06-26T06:55:30.039Z,168.75
2019-06-26T06:56:29.966Z,168.75
2019-06-26T06:57:29.924Z,174.38
2019-06-26T06:58:30.336Z,174.38
2019-06-26T06:59:29.872Z,174.38
2019-06-26T07:00:29.807Z,174.38
2019-06-26T07:01:29.759Z,174.38
2019-06-26T07:02:29.718Z,174.38
2019-06-26T07:03:29.677Z,174.38
2019-06-26T07:04:29.667Z,174.38
2019-06-26T07:05:29.593Z,180.00
2019-06-26T07:06:29.556Z,180.00
2019-06-26T07:07:29.516Z,180.00
2019-06-26T07:08:29.473Z,180.00
2019-06-26T07:09:29.461Z,185.63
2019-06-26T07:10:29.399Z,180.00
2019-06-26T07:11:29.350Z,185.63
2019-06-26T07:12:29.319Z,185.63
2019-06-26T07:13:29.268Z,185.63
2019-06-26T07:14:29.270Z,185.63
2019-06-26T07:15:29.193Z,191.25
2019-06-26T07:16:29.147Z,191.25
2019-06-26T07:17:29.104Z,191.25
2019-06-26T07:18:29.068Z,191.25
2019-06-26T07:19:29.056Z,191.25
2019-06-26T07:20:28.991Z,191.25
2019-06-26T07:21:28.943Z,185.63
2019-06-26T07:22:28.901Z,191.25
2019-06-26T07:23:28.890Z,191.25
2019-06-26T07:24:28.832Z,191.25
2019-06-26T07:25:28.810Z,191.25
2019-06-26T07:26:28.739Z,196.88
2019-06-26T07:27:28.743Z,196.88
2019-06-26T07:28:28.657Z,196.88
2019-06-26T07:29:28.617Z,196.88
2019-06-26T07:30:28.583Z,196.88
2019-06-26T07:31:28.534Z,202.50
2019-06-26T07:32:28.539Z,196.88
2019-06-26T07:33:28.454Z,202.50
2019-06-26T07:34:28.416Z,202.50
2019-06-26T07:35:28.375Z,196.88
2019-06-26T07:36:28.334Z,196.88
2019-06-26T07:37:28.324Z,196.88
2019-06-26T07:38:28.253Z,196.88
2019-06-26T07:39:28.225Z,202.50
2019-06-26T07:40:28.195Z,202.50
2019-06-26T07:41:28.132Z,202.50
2019-06-26T07:42:28.121Z,202.50
2019-06-26T07:43:28.050Z,202.50
2019-06-26T07:44:28.111Z,208.13
2019-06-26T07:45:27.983Z,208.13
2019-06-26T07:46:27.932Z,208.13
2019-06-26T07:47:41.859Z,208.13
2019-06-26T07:48:27.850Z,208.13
2019-06-26T07:49:27.900Z,208.13
2019-06-26T07:50:27.770Z,213.75
2019-06-26T07:51:27.736Z,213.75
2019-06-26T07:52:27.689Z,213.75
2019-06-26T07:53:27.704Z,213.75
2019-06-26T07:54:27.639Z,219.38
2019-06-26T07:55:27.569Z,219.38
2019-06-26T07:56:27.564Z,219.38
2019-06-26T07:57:27.488Z,219.38
2019-06-26T07:58:27.449Z,219.38
2019-06-26T07:59:27.440Z,225.00
2019-06-26T08:00:31.368Z,225.00
2019-06-26T08:01:27.485Z,225.00
2019-06-26T08:02:27.291Z,225.00
2019-06-26T08:03:27.254Z,225.00
2019-06-26T08:04:27.253Z,225.00
2019-06-26T08:05:27.169Z,225.00
2019-06-26T08:06:27.130Z,225.00
2019-06-26T08:07:27.090Z,230.63
2019-06-26T08:08:27.052Z,230.63
2019-06-26T08:09:27.066Z,230.63
2019-06-26T08:10:26.971Z,230.63
2019-06-26T08:11:26.931Z,241.88
2019-06-26T08:12:26.922Z,236.25
2019-06-26T08:13:26.853Z,241.88
2019-06-26T08:14:26.821Z,241.88
2019-06-26T08:15:26.793Z,241.88
2019-06-26T08:16:26.734Z,247.50
2019-06-26T08:17:26.725Z,247.50
2019-06-26T08:18:26.655Z,247.50
2019-06-26T08:19:26.623Z,253.13
2019-06-26T08:20:26.619Z,247.50
2019-06-26T08:21:26.540Z,253.13
2019-06-26T08:22:26.501Z,253.13
2019-06-26T08:23:26.460Z,253.13
2019-06-26T08:24:26.418Z,253.13
2019-06-26T08:25:26.430Z,258.75
2019-06-26T08:26:26.340Z,258.75
2019-06-26T08:27:26.302Z,258.75
2019-06-26T08:28:26.336Z,264.38
2019-06-26T08:29:26.222Z,264.38
2019-06-26T08:30:26.306Z,264.38
2019-06-26T08:31:26.145Z,264.38
2019-06-26T08:32:26.225Z,270.00
2019-06-26T08:33:26.071Z,270.00
2019-06-26T08:34:26.033Z,275.63
2019-06-26T08:35:26.024Z,275.63
2019-06-26T08:36:25.961Z,275.63
2019-06-26T08:37:25.914Z,275.63
2019-06-26T08:38:25.873Z,275.63
2019-06-26T08:39:25.867Z,275.63
2019-06-26T08:40:25.795Z,275.63
2019-06-26T08:41:25.797Z,281.25
2019-06-26T08:42:25.721Z,281.25
2019-06-26T08:43:25.681Z,286.88
2019-06-26T08:44:25.640Z,286.88
2019-06-26T08:45:25.609Z,286.88
2019-06-26T08:46:25.591Z,292.50
2019-06-26T08:47:25.527Z,298.13
2019-06-26T08:48:39.150Z,292.50
2019-06-26T08:49:26.694Z,298.13
2019-06-26T08:50:25.443Z,298.13
2019-06-26T08:51:25.375Z,298.13
2019-06-26T08:52:25.336Z,298.13
2019-06-26T08:53:25.296Z,298.13
2019-06-26T08:54:25.266Z,303.75
2019-06-26T08:55:25.258Z,298.13
2019-06-26T08:56:25.184Z,298.13
2019-06-26T08:57:25.150Z,298.13
2019-06-26T08:58:25.113Z,309.38
2019-06-26T08:59:25.098Z,303.75
2019-06-26T09:00:25.063Z,303.75
2019-06-26T09:01:25.010Z,303.75
2019-06-26T09:02:24.957Z,303.75
2019-06-26T09:03:24.920Z,303.75
2019-06-26T09:04:25.022Z,309.38
2019-06-26T09:05:24.881Z,309.38
2019-06-26T09:06:24.809Z,309.38
2019-06-26T09:07:24.774Z,309.38
2019-06-26T09:08:24.903Z,309.38
2019-06-26T09:09:24.699Z,315.00
2019-06-26T09:10:24.696Z,315.00
2019-06-26T09:11:24.647Z,320.63
2019-06-26T09:12:24.725Z,315.00
2019-06-26T09:13:24.552Z,315.00
2019-06-26T09:14:24.518Z,315.00
2019-06-26T09:15:24.508Z,320.63
2019-06-26T09:16:24.472Z,320.63
2019-06-26T09:17:24.408Z,320.63
2019-06-26T09:18:34.942Z,326.25
2019-06-26T09:19:24.339Z,320.63
2019-06-26T09:20:24.311Z,320.63
2019-06-26T09:21:24.284Z,320.63
2019-06-26T09:22:24.224Z,326.25
2019-06-26T09:23:24.187Z,326.25
2019-06-26T09:24:24.183Z,326.25
2019-06-26T09:25:24.114Z,326.25
2019-06-26T09:26:24.106Z,326.25
2019-06-26T09:27:24.053Z,326.25
2019-06-26T09:28:24.011Z,326.25
2019-06-26T09:29:24.252Z,326.25
2019-06-26T09:30:23.939Z,326.25
2019-06-26T09:31:23.946Z,326.25
2019-06-26T09:32:23.879Z,326.25
2019-06-26T09:33:23.829Z,326.25
2019-06-26T09:34:23.796Z,326.25
2019-06-26T09:35:23.761Z,326.25
2019-06-26T09:36:23.754Z,326.25
2019-06-26T09:37:23.691Z,326.25
2019-06-26T09:38:23.685Z,326.25
2019-06-26T09:39:23.624Z,326.25
2019-06-26T09:40:23.584Z,326.25
2019-06-26T09:41:23.551Z,326.25
2019-06-26T09:42:23.515Z,326.25
2019-06-26T09:43:23.511Z,326.25
2019-06-26T09:44:23.475Z,326.25
2019-06-26T09:45:23.410Z,326.25
2019-06-26T09:46:23.373Z,326.25
2019-06-26T09:47:23.342Z,326.25
2019-06-26T09:48:23.307Z,326.25
2019-06-26T09:49:23.317Z,326.25
2019-06-26T09:50:23.234Z,331.88
2019-06-26T09:51:23.213Z,326.25
2019-06-26T09:52:23.252Z,326.25
2019-06-26T09:53:23.133Z,326.25
2019-06-26T09:54:23.098Z,326.25
2019-06-26T09:55:23.074Z,326.25
2019-06-26T09:56:23.029Z,326.25
2019-06-26T09:57:23.039Z,326.25
2019-06-26T09:58:22.967Z,326.25
2019-06-26T09:59:22.977Z,326.25
2019-06-26T10:00:22.915Z,326.25
2019-06-26T10:01:22.878Z,326.25
2019-06-26T10:02:22.880Z,326.25
2019-06-26T10:03:22.790Z,326.25
2019-06-26T10:04:22.754Z,326.25
2019-06-26T10:05:22.722Z,326.25
2019-06-26T10:06:22.689Z,326.25
2019-06-26T10:07:22.685Z,326.25
2019-06-26T10:08:22.621Z,326.25
2019-06-26T10:09:22.618Z,326.25
2019-06-26T10:10:22.552Z,326.25
2019-06-26T10:11:22.521Z,331.88
2019-06-26T10:12:22.484Z,331.88
2019-06-26T10:13:22.457Z,326.25
2019-06-26T10:14:22.454Z,326.25
2019-06-26T10:15:22.385Z,331.88
2019-06-26T10:16:22.372Z,326.25
2019-06-26T10:17:22.316Z,326.25
2019-06-26T10:18:22.290Z,326.25
2019-06-26T10:19:22.284Z,326.25
2019-06-26T10:20:22.317Z,326.25
2019-06-26T10:21:23.659Z,326.25
2019-06-26T10:22:22.151Z,326.25
2019-06-26T10:23:22.122Z,326.25
2019-06-26T10:24:22.124Z,326.25
2019-06-26T10:25:22.092Z,326.25
2019-06-26T10:26:22.026Z,326.25
2019-06-26T10:27:21.989Z,326.25
2019-06-26T10:28:22.274Z,331.88
2019-06-26T10:29:21.954Z,331.88
2019-06-26T10:30:21.886Z,326.25
2019-06-26T10:31:21.859Z,326.25
2019-06-26T10:32:21.830Z,326.25
2019-06-26T10:33:21.791Z,326.25
2019-06-26T10:34:21.786Z,326.25
2019-06-26T10:35:21.722Z,326.25
2019-06-26T10:36:24.419Z,326.25
2019-06-26T10:37:21.654Z,326.25
2019-06-26T10:38:21.623Z,326.25
2019-06-26T10:39:21.627Z,326.25
2019-06-26T10:40:21.559Z,326.25
2019-06-26T10:41:21.526Z,326.25
2019-06-26T10:42:21.539Z,326.25
2019-06-26T10:43:21.461Z,326.25
2019-06-26T10:44:21.431Z,326.25
2019-06-26T10:45:21.395Z,326.25
2019-06-26T10:46:21.361Z,326.25
2019-06-26T10:47:21.364Z,326.25
2019-06-26T10:48:21.301Z,326.25
2019-06-26T10:49:26.968Z,326.25
2019-06-26T10:50:21.239Z,326.25
2019-06-26T10:51:21.201Z,326.25
2019-06-26T10:52:21.199Z,326.25
2019-06-26T10:53:21.149Z,331.88
2019-06-26T10:54:21.103Z,326.25
2019-06-26T10:55:21.075Z,326.25
2019-06-26T10:56:21.441Z,326.25
2019-06-26T10:57:21.008Z,326.25
2019-06-26T10:58:21.008Z,326.25
2019-06-26T10:59:20.965Z,326.25
2019-06-26T11:00:20.914Z,326.25
2019-06-26T11:01:20.879Z,326.25
2019-06-26T11:02:20.845Z,326.25
2019-06-26T11:03:20.885Z,326.25
2019-06-26T11:04:20.781Z,326.25
2019-06-26T11:05:20.750Z,326.25
2019-06-26T11:06:20.747Z,326.25
2019-06-26T11:07:20.688Z,326.25
2019-06-26T11:08:20.651Z,326.25
2019-06-26T11:09:20.661Z,326.25
2019-06-26T11:10:20.589Z,326.25
2019-06-26T11:11:20.558Z,326.25
2019-06-26T11:12:20.524Z,326.25
2019-06-26T11:13:20.493Z,326.25
2019-06-26T11:14:20.496Z,320.63
2019-06-26T11:15:20.429Z,320.63
2019-06-26T11:16:20.397Z,326.25
2019-06-26T11:17:20.378Z,320.63
2019-06-26T11:18:20.360Z,320.63
2019-06-26T11:19:20.301Z,320.63
2019-06-26T11:20:20.275Z,320.63
2019-06-26T11:21:20.237Z,320.63
2019-06-26T11:22:20.239Z,320.63
2019-06-26T11:23:20.182Z,320.63
2019-06-26T11:24:20.141Z,320.63
2019-06-26T11:25:20.153Z,320.63
2019-06-26T11:26:20.080Z,320.63
2019-06-26T11:27:20.144Z,320.63
2019-06-26T11:28:20.015Z,320.63
2019-06-26T11:29:19.985Z,320.63
2019-06-26T11:30:19.997Z,320.63
2019-06-26T11:31:19.922Z,320.63
2019-06-26T11:32:19.896Z,320.63
2019-06-26T11:33:19.856Z,320.63
2019-06-26T11:34:19.828Z,320.63
2019-06-26T11:35:19.826Z,320.63
2019-06-26T11:36:19.765Z,315.00
2019-06-26T11:37:22.812Z,315.00
2019-06-26T11:38:19.699Z,315.00
2019-06-26T11:39:19.667Z,315.00
2019-06-26T11:40:19.659Z,315.00
2019-06-26T11:41:19.645Z,320.63
2019-06-26T11:42:19.608Z,315.00
2019-06-26T11:43:19.544Z,315.00
2019-06-26T11:44:19.511Z,315.00
2019-06-26T11:45:19.481Z,315.00
2019-06-26T11:46:19.448Z,315.00
2019-06-26T11:47:19.447Z,315.00
2019-06-26T11:48:19.382Z,315.00
2019-06-26T11:49:19.354Z,320.63
2019-06-26T11:50:19.320Z,315.00
2019-06-26T11:51:19.384Z,309.38
2019-06-26T11:52:19.303Z,309.38
2019-06-26T11:53:19.343Z,309.38
2019-06-26T11:54:19.195Z,309.38
2019-06-26T11:55:19.314Z,309.38
2019-06-26T11:56:19.150Z,309.38
2019-06-26T11:57:19.133Z,309.38
2019-06-26T11:58:19.068Z,309.38
2019-06-26T11:59:19.040Z,309.38
2019-06-26T12:00:19.074Z,315.00
2019-06-26T12:01:18.976Z,309.38
2019-06-26T12:02:18.949Z,309.38
2019-06-26T12:03:18.943Z,309.38
2019-06-26T12:04:18.879Z,309.38
2019-06-26T12:05:18.848Z,309.38
2019-06-26T12:06:19.428Z,315.00
2019-06-26T12:07:18.788Z,303.75
2019-06-26T12:08:18.789Z,309.38
2019-06-26T12:09:18.798Z,303.75
2019-06-26T12:10:18.715Z,303.75
2019-06-26T12:11:18.661Z,303.75
2019-06-26T12:12:19.012Z,303.75
2019-06-26T12:13:18.598Z,303.75
2019-06-26T12:14:18.663Z,303.75
2019-06-26T12:15:18.540Z,298.13
2019-06-26T12:16:18.501Z,298.13
2019-06-26T12:17:18.472Z,298.13
2019-06-26T12:18:18.468Z,298.13
2019-06-26T12:19:22.373Z,298.13
2019-06-26T12:20:19.966Z,298.13
2019-06-26T12:21:18.349Z,298.13
2019-06-26T12:22:18.314Z,298.13
2019-06-26T12:23:18.305Z,298.13
2019-06-26T12:24:18.248Z,298.13
2019-06-26T12:25:18.252Z,298.13
2019-06-26T12:26:18.187Z,298.13
2019-06-26T12:27:18.159Z,298.13
2019-06-26T12:28:18.123Z,292.50
2019-06-26T12:29:18.094Z,292.50
2019-06-26T12:30:18.491Z,292.50
2019-06-26T12:31:18.031Z,292.50
2019-06-26T12:32:18.004Z,292.50
2019-06-26T12:33:17.972Z,292.50
2019-06-26T12:34:18.515Z,292.50
2019-06-26T12:35:17.937Z,309.38
2019-06-26T12:36:17.907Z,298.13
2019-06-26T12:37:18.633Z,292.50
2019-06-26T12:38:17.813Z,298.13
2019-06-26T12:39:17.845Z,292.50
2019-06-26T12:40:17.750Z,303.75
2019-06-26T12:41:17.751Z,292.50
2019-06-26T12:42:17.689Z,286.88
2019-06-26T12:43:17.658Z,286.88
2019-06-26T12:44:17.645Z,298.13